Aviation Digital Data Service (ADDS)

Output produced by TAFs form (0153 UTC 22 June 2018)
found at http://www.aviationweather.gov/adds/tafs/
 
KGSO 220104Z 2201/2224 22006KT P6SM VCTS SCT050CB BKN250 
     TEMPO 2201/2203 VRB18G30KT 2SM TSRA SCT025 BKN040CB 
     FM220300 23004KT P6SM SCT080 BKN250 
     FM221800 23010G18KT P6SM SCT060